createdAt,value
2022-09-01T00:01:42.108Z,101777.56
2022-09-01T00:04:11.196Z,101771.34
2022-09-01T00:06:40.690Z,101775.88
2022-09-01T00:09:10.108Z,101789.34
2022-09-01T00:11:38.622Z,101784.03
2022-09-01T00:14:09.871Z,101775.16
2022-09-01T00:16:54.481Z,101778.75
2022-09-01T00:19:22.492Z,101781.50
2022-09-01T00:21:49.226Z,101780.69
2022-09-01T00:24:17.472Z,101778.91
2022-09-01T00:26:45.049Z,101781.66
2022-09-01T00:29:12.360Z,101783.47
2022-09-01T00:31:39.480Z,101787.06
2022-09-01T00:34:06.221Z,101788.94
2022-09-01T00:36:32.975Z,101781.84
2022-09-01T00:38:59.776Z,101789.00
2022-09-01T00:41:32.260Z,101789.03
2022-09-01T00:44:02.168Z,101791.78
2022-09-01T00:46:35.414Z,101790.91
2022-09-01T00:49:09.708Z,101782.00
2022-09-01T00:51:41.368Z,101788.31
2022-09-01T00:54:12.883Z,101786.56
2022-09-01T00:56:41.181Z,101779.44
2022-09-01T00:59:13.772Z,101780.38
2022-09-01T01:01:40.573Z,101779.50
2022-09-01T01:04:14.788Z,101783.13
2022-09-01T01:10:32.596Z,101785.97
2022-09-01T01:13:01.913Z,101775.31
2022-09-01T01:15:29.577Z,101770.91
2022-09-01T01:17:56.379Z,101771.81
2022-09-01T01:20:45.224Z,101782.63
2022-09-01T01:23:21.920Z,101774.59
2022-09-01T01:25:56.439Z,101772.91
2022-09-01T01:28:23.391Z,101764.91
2022-09-01T01:31:01.764Z,101765.84
2022-09-01T01:33:32.673Z,101763.22
2022-09-01T01:35:59.837Z,101770.41
2022-09-01T01:38:30.046Z,101775.81
2022-09-01T01:40:56.825Z,101770.50
2022-09-01T01:43:24.349Z,101779.47
2022-09-01T01:45:53.488Z,101775.06
2022-09-01T01:48:24.402Z,101775.97
2022-09-01T01:50:52.618Z,101775.09
2022-09-01T01:53:19.406Z,101773.34
2022-09-01T01:55:49.916Z,101779.63
2022-09-01T01:58:19.779Z,101777.88
2022-09-01T02:00:48.343Z,101777.91
2022-09-01T02:03:19.006Z,101777.97
2022-09-01T02:05:50.415Z,101785.13
2022-09-01T02:08:21.902Z,101786.06
2022-09-01T02:10:51.171Z,101794.13
2022-09-01T02:13:20.859Z,101786.16
2022-09-01T02:15:53.614Z,101787.09
2022-09-01T02:18:36.255Z,101792.47
2022-09-01T02:21:15.035Z,101787.13
2022-09-01T02:23:43.446Z,101791.69
2022-09-01T02:26:16.646Z,101783.69
2022-09-01T02:28:46.867Z,101786.38
2022-09-01T02:31:15.696Z,101789.09
2022-09-01T02:33:47.056Z,101792.69
2022-09-01T02:36:17.218Z,101787.38
2022-09-01T02:38:46.646Z,101787.38
2022-09-01T02:41:14.300Z,101782.09
2022-09-01T02:43:44.454Z,101781.25
2022-09-01T02:46:11.758Z,101775.00
2022-09-01T02:48:40.301Z,101778.63
2022-09-01T02:51:16.198Z,101775.06
2022-09-01T02:53:49.685Z,101767.06
2022-09-01T02:56:18.145Z,101776.91
2022-09-01T02:58:46.384Z,101758.22
2022-09-01T03:01:22.051Z,101762.72
2022-09-01T03:03:50.743Z,101769.88
2022-09-01T03:06:19.796Z,101766.31
2022-09-01T03:08:47.428Z,101760.09
2022-09-01T03:11:14.162Z,101764.56
2022-09-01T03:13:41.580Z,101768.19
2022-09-01T03:16:09.332Z,101766.41
2022-09-01T03:18:36.873Z,101765.56
2022-09-01T03:21:05.153Z,101770.03
2022-09-01T03:23:33.879Z,101770.91
2022-09-01T03:26:01.331Z,101764.72
2022-09-01T03:28:28.108Z,101770.09
2022-09-01T03:30:56.809Z,101777.28
2022-09-01T03:33:25.130Z,101766.56
2022-09-01T03:35:51.864Z,101768.41
2022-09-01T03:38:22.063Z,101770.19
2022-09-01T03:40:51.064Z,101774.66
2022-09-01T03:43:19.867Z,101769.34
2022-09-01T03:45:46.818Z,101769.38
2022-09-01T03:48:16.207Z,101764.03
2022-09-01T03:50:47.481Z,101766.75
2022-09-01T03:53:20.145Z,101767.66
2022-09-01T03:55:47.957Z,101766.78
2022-09-01T03:58:19.048Z,101763.22
2022-09-01T04:00:55.285Z,101762.34
2022-09-01T04:03:31.039Z,101758.78
2022-09-01T04:05:59.420Z,101760.63
2022-09-01T04:08:32.660Z,101754.38
2022-09-01T04:11:03.790Z,101759.78
2022-09-01T04:13:35.573Z,101750.00
2022-09-01T04:16:02.476Z,101750.06
2022-09-01T04:18:30.481Z,101754.53
2022-09-01T04:20:59.324Z,101757.25
2022-09-01T04:23:33.439Z,101758.13
2022-09-01T04:26:07.594Z,101760.84
2022-09-01T04:28:37.335Z,101764.41
2022-09-01T04:31:09.033Z,101765.31
2022-09-01T04:33:39.893Z,101772.44
2022-09-01T04:36:23.638Z,101763.56
2022-09-01T04:38:56.107Z,101767.13
2022-09-01T04:41:31.973Z,101758.25
2022-09-01T04:44:04.594Z,101764.50
2022-09-01T04:46:42.233Z,101761.81
2022-09-01T04:49:12.929Z,101765.41
2022-09-01T04:51:45.137Z,101762.72
2022-09-01T04:54:14.294Z,101763.59
2022-09-01T04:56:43.450Z,101761.88
2022-09-01T04:59:11.907Z,101777.91
2022-09-01T05:01:46.312Z,101780.59
2022-09-01T05:04:17.866Z,101779.69
2022-09-01T05:06:49.186Z,101777.91
2022-09-01T05:09:17.991Z,101775.28
2022-09-01T05:11:48.543Z,101778.81
2022-09-01T05:14:18.943Z,101783.28
2022-09-01T05:16:45.885Z,101779.66
2022-09-01T05:19:17.450Z,101779.66
2022-09-01T05:21:46.010Z,101781.41
2022-09-01T05:24:19.047Z,101779.63
2022-09-01T05:26:47.350Z,101783.16
2022-09-01T05:29:17.693Z,101780.47
2022-09-01T05:31:46.950Z,101779.56
2022-09-01T05:34:19.938Z,101775.03
2022-09-01T05:36:50.448Z,101774.06
2022-09-01T05:39:17.365Z,101780.06
2022-09-01T05:41:45.841Z,101782.25
2022-09-01T05:44:14.051Z,101782.50
2022-09-01T05:46:42.521Z,101786.13
2022-09-01T05:49:13.705Z,101776.22
2022-09-01T05:51:45.773Z,101785.81
2022-09-01T05:54:14.348Z,101784.81
2022-09-01T05:56:44.000Z,101774.25
2022-09-01T05:59:28.457Z,101774.53
2022-09-01T06:01:55.602Z,101773.47
2022-09-01T06:04:25.378Z,101779.72
2022-09-01T06:07:10.324Z,101779.78
2022-09-01T06:09:39.926Z,101780.31
2022-09-01T06:12:08.411Z,101783.56
2022-09-01T06:14:35.162Z,101779.41
2022-09-01T06:17:03.060Z,101774.69
2022-09-01T06:19:33.591Z,101782.75
2022-09-01T06:22:03.055Z,101775.69
2022-09-01T06:24:29.890Z,101779.94
2022-09-01T06:26:56.644Z,101777.88
2022-09-01T06:29:23.388Z,101779.91
2022-09-01T06:31:52.733Z,101777.19
2022-09-01T06:34:20.030Z,101776.00
2022-09-01T06:36:48.487Z,101780.03
2022-09-01T06:39:19.909Z,101794.19
2022-09-01T06:41:52.657Z,101774.81
2022-09-01T06:44:22.949Z,101783.59
2022-09-01T06:46:51.666Z,101785.88
2022-09-01T06:49:21.263Z,101781.25
2022-09-01T06:51:52.671Z,101780.31
2022-09-01T06:54:21.075Z,101779.75
2022-09-01T06:56:51.721Z,101785.81
2022-09-01T06:59:20.528Z,101792.53
2022-09-01T07:01:48.983Z,101785.94
2022-09-01T07:04:19.994Z,101786.97
2022-09-01T07:09:46.997Z,101792.03
2022-09-01T07:12:27.563Z,101789.66
2022-09-01T07:17:43.080Z,101785.78
2022-09-01T07:20:27.122Z,101790.81
2022-09-01T07:23:03.954Z,101791.44
2022-09-01T07:25:48.417Z,101795.84
2022-09-01T07:28:20.257Z,101793.56
2022-09-01T07:30:53.164Z,101790.41
2022-09-01T07:36:27.363Z,101790.47
2022-09-01T07:44:29.252Z,101792.03
2022-09-01T07:52:31.384Z,101799.47
2022-09-01T07:54:58.120Z,101795.81
2022-09-01T07:57:24.866Z,101803.72
2022-09-01T07:59:53.858Z,101798.88
2022-09-01T08:02:20.630Z,101801.28
2022-09-01T08:04:48.147Z,101807.38
2022-09-01T08:07:16.217Z,101804.03
2022-09-01T08:09:44.542Z,101812.16
2022-09-01T08:12:11.454Z,101801.97
2022-09-01T08:14:38.212Z,101808.44
2022-09-01T08:19:53.511Z,101806.94
2022-09-01T08:22:24.037Z,101806.53
2022-09-01T08:24:52.086Z,101802.41
2022-09-01T08:27:18.962Z,101807.38
2022-09-01T08:29:45.742Z,101801.41
2022-09-01T08:32:12.463Z,101806.19
2022-09-01T08:34:39.356Z,101798.31
2022-09-01T08:37:06.581Z,101803.03
2022-09-01T08:39:33.330Z,101797.81
2022-09-01T08:42:49.377Z,101802.44
2022-09-01T08:45:24.228Z,101800.72
2022-09-01T08:48:29.205Z,101799.94
2022-09-01T08:50:45.396Z,101798.06
2022-09-01T08:53:33.540Z,101788.06
2022-09-01T08:56:00.399Z,101796.25
2022-09-01T08:58:30.991Z,101801.97
2022-09-01T09:01:04.857Z,101808.38
2022-09-01T09:03:59.399Z,101809.63
2022-09-01T09:06:57.771Z,101804.53
2022-09-01T09:09:35.485Z,101801.16
2022-09-01T09:12:28.624Z,101802.13
2022-09-01T09:15:17.216Z,101804.16
2022-09-01T09:17:49.338Z,101800.91
2022-09-01T09:20:16.505Z,101801.19
2022-09-01T09:22:45.051Z,101797.88
2022-09-01T09:25:19.300Z,101800.91
2022-09-01T09:27:48.843Z,101799.28
2022-09-01T09:30:27.273Z,101795.88
2022-09-01T09:35:54.340Z,101795.19
2022-09-01T09:38:29.014Z,101791.53
2022-09-01T09:41:18.365Z,101788.81
2022-09-01T09:43:49.667Z,101786.16
2022-09-01T09:46:25.246Z,101786.25
2022-09-01T09:49:34.546Z,101785.38
2022-09-01T09:52:03.376Z,101777.25
2022-09-01T09:54:32.117Z,101776.34
2022-09-01T09:57:16.156Z,101778.13
2022-09-01T10:00:01.107Z,101779.94
2022-09-01T10:02:37.125Z,101770.81
2022-09-01T10:05:27.825Z,101780.84
2022-09-01T10:07:56.309Z,101770.09
2022-09-01T10:10:28.010Z,101763.94
2022-09-01T10:12:56.040Z,101769.44
2022-09-01T10:15:25.800Z,101778.38
2022-09-01T10:18:19.640Z,101761.19
2022-09-01T10:20:48.066Z,101771.09
2022-09-01T10:23:15.694Z,101760.16
2022-09-01T10:25:43.358Z,101754.69
2022-09-01T10:28:20.678Z,101763.63
2022-09-01T10:30:48.008Z,101759.88
2022-09-01T10:33:22.042Z,101756.06
2022-09-01T10:35:53.437Z,101754.84
2022-09-01T10:38:26.046Z,101751.22
2022-09-01T10:41:07.895Z,101745.78
2022-09-01T10:43:49.374Z,101749.38
2022-09-01T10:46:27.655Z,101748.22
2022-09-01T10:49:19.680Z,101755.25
2022-09-01T10:52:28.278Z,101747.00
2022-09-01T10:54:51.335Z,101741.56
2022-09-01T10:57:18.310Z,101745.22
2022-09-01T10:59:56.735Z,101736.28
2022-09-01T11:02:27.176Z,101739.09
2022-09-01T11:04:55.042Z,101737.38
2022-09-01T11:07:44.404Z,101727.56
2022-09-01T11:10:33.619Z,101731.00
2022-09-01T11:13:16.034Z,101731.22
2022-09-01T11:15:45.509Z,101732.25
2022-09-01T11:18:19.405Z,101732.38
2022-09-01T11:20:46.831Z,101723.19
2022-09-01T11:23:30.466Z,101726.16
2022-09-01T11:28:50.285Z,101718.44
2022-09-01T11:31:32.805Z,101723.25
2022-09-01T11:34:11.051Z,101720.78
2022-09-01T11:36:49.981Z,101715.56
2022-09-01T11:39:33.120Z,101707.56
2022-09-01T11:42:19.819Z,101703.53
2022-09-01T11:44:54.074Z,101710.28
2022-09-01T11:47:26.597Z,101700.84
2022-09-01T11:49:57.549Z,101707.47
2022-09-01T11:52:27.437Z,101701.59
2022-09-01T11:54:54.636Z,101697.78
2022-09-01T11:57:24.365Z,101692.19
2022-09-01T11:59:51.489Z,101696.56
2022-09-01T12:02:28.125Z,101699.22
2022-09-01T12:04:56.202Z,101706.25
2022-09-01T12:07:34.552Z,101700.81
2022-09-01T12:10:01.457Z,101702.81
2022-09-01T12:12:37.862Z,101701.00
2022-09-01T12:15:25.257Z,101695.41
2022-09-01T12:17:52.969Z,101694.34
2022-09-01T12:20:28.999Z,101694.56
2022-09-01T12:22:56.189Z,101692.25
2022-09-01T12:25:28.429Z,101693.44
2022-09-01T12:27:55.494Z,101695.44
2022-09-01T12:30:22.797Z,101688.25
2022-09-01T12:32:49.977Z,101690.88
2022-09-01T12:35:22.084Z,101678.13
2022-09-01T12:37:50.213Z,101684.34
2022-09-01T12:40:32.245Z,101685.22
2022-09-01T12:42:59.057Z,101687.38
2022-09-01T12:45:46.875Z,101683.38
2022-09-01T12:48:31.488Z,101679.31
2022-09-01T12:51:03.393Z,101681.38
2022-09-01T12:53:32.505Z,101680.47
2022-09-01T12:56:03.382Z,101664.94
2022-09-01T12:58:31.794Z,101676.38
2022-09-01T13:01:03.060Z,101668.00
2022-09-01T13:03:30.228Z,101677.00
2022-09-01T13:05:59.193Z,101668.91
2022-09-01T13:08:28.833Z,101668.16
2022-09-01T13:11:04.613Z,101662.06
2022-09-01T13:13:31.455Z,101659.53
2022-09-01T13:16:04.633Z,101663.31
2022-09-01T13:18:31.506Z,101659.66
2022-09-01T13:20:58.992Z,101653.94
2022-09-01T13:23:25.831Z,101666.97
2022-09-01T13:25:53.008Z,101659.47
2022-09-01T13:36:48.435Z,101648.56
2022-09-01T13:39:15.772Z,101647.91
2022-09-01T13:41:43.218Z,101640.81
2022-09-01T13:44:10.395Z,101637.47
2022-09-01T13:46:59.275Z,101636.81
2022-09-01T13:52:11.255Z,101633.91
2022-09-01T13:54:38.005Z,101627.84
2022-09-01T13:57:04.730Z,101615.06
2022-09-01T13:59:32.909Z,101622.69
2022-09-01T14:02:00.937Z,101624.56
2022-09-01T14:04:27.756Z,101624.59
2022-09-01T14:06:54.986Z,101616.81
2022-09-01T14:09:22.036Z,101617.44
2022-09-01T14:11:48.776Z,101622.72
2022-09-01T14:14:15.532Z,101618.88
2022-09-01T14:16:42.354Z,101614.06
2022-09-01T14:19:11.393Z,101618.31
2022-09-01T14:21:38.786Z,101617.44
2022-09-01T14:26:37.464Z,101599.66
2022-09-01T14:29:04.199Z,101585.53
2022-09-01T14:31:31.909Z,101593.00
2022-09-01T14:33:58.669Z,101598.06
2022-09-01T14:36:26.677Z,101600.78
2022-09-01T14:38:54.190Z,101602.03
2022-09-01T14:41:26.747Z,101596.22
2022-09-01T14:43:55.477Z,101594.09
2022-09-01T14:46:25.023Z,101597.09
2022-09-01T14:48:51.857Z,101596.34
2022-09-01T14:54:16.377Z,101587.38
2022-09-01T14:57:27.337Z,101590.16
2022-09-01T14:59:29.870Z,101578.41
2022-09-01T15:01:56.886Z,101577.38
2022-09-01T15:04:23.777Z,101572.66
2022-09-01T15:06:50.590Z,101567.88
2022-09-01T15:09:19.217Z,101564.84
2022-09-01T15:11:46.265Z,101562.91
2022-09-01T15:14:13.172Z,101567.56
2022-09-01T15:16:41.386Z,101565.81
2022-09-01T15:19:12.914Z,101574.13
2022-09-01T15:21:41.716Z,101554.31
2022-09-01T15:24:09.749Z,101559.78
2022-09-01T15:26:38.090Z,101555.41
2022-09-01T15:29:04.891Z,101551.25
2022-09-01T15:31:33.668Z,101551.59
2022-09-01T15:34:02.156Z,101556.38
2022-09-01T15:36:29.424Z,101550.31
2022-09-01T15:38:56.833Z,101551.13
2022-09-01T15:41:28.871Z,101550.31
2022-09-01T15:43:56.075Z,101551.28
2022-09-01T15:46:23.263Z,101554.00
2022-09-01T15:48:50.517Z,101555.91
2022-09-01T15:51:20.264Z,101546.97
2022-09-01T15:53:46.999Z,101542.59
2022-09-01T15:56:13.757Z,101552.75
2022-09-01T15:59:00.609Z,101550.16
2022-09-01T16:01:28.813Z,101545.84
2022-09-01T16:03:56.241Z,101550.56
2022-09-01T16:06:23.445Z,101556.19
2022-09-01T16:08:50.784Z,101546.44
2022-09-01T16:11:17.538Z,101541.06
2022-09-01T16:13:44.302Z,101538.44
2022-09-01T16:16:42.121Z,101546.69
2022-09-01T16:19:36.793Z,101536.97
2022-09-01T16:22:27.715Z,101542.69
2022-09-01T16:24:57.804Z,101546.47
2022-09-01T16:27:32.928Z,101533.91
2022-09-01T16:30:07.946Z,101534.78
2022-09-01T16:32:36.009Z,101532.25
2022-09-01T16:35:04.159Z,101528.72
2022-09-01T16:37:57.228Z,101531.59
2022-09-01T16:40:51.837Z,101536.38
2022-09-01T16:43:19.208Z,101532.06
2022-09-01T16:46:11.285Z,101526.00
2022-09-01T16:48:38.913Z,101524.47
2022-09-01T16:51:31.406Z,101525.66
2022-09-01T16:54:28.423Z,101520.53
2022-09-01T16:57:21.979Z,101529.84
2022-09-01T17:00:01.785Z,101530.03
2022-09-01T17:02:52.540Z,101531.31
2022-09-01T17:05:54.829Z,101532.53
2022-09-01T17:08:24.172Z,101540.06
2022-09-01T17:10:56.210Z,101534.75
2022-09-01T17:13:37.986Z,101534.09
2022-09-01T17:16:11.830Z,101533.47
2022-09-01T17:18:40.857Z,101539.91
2022-09-01T17:21:19.184Z,101536.53
2022-09-01T17:23:53.372Z,101526.88
2022-09-01T17:26:24.060Z,101534.34
2022-09-01T17:29:07.245Z,101541.81
2022-09-01T17:31:57.968Z,101539.31
2022-09-01T17:34:39.997Z,101550.38
2022-09-01T17:37:23.258Z,101546.06
2022-09-01T17:40:01.696Z,101547.22
2022-09-01T17:42:36.559Z,101541.13
2022-09-01T17:45:12.967Z,101544.91
2022-09-01T17:47:46.836Z,101541.53
2022-09-01T17:50:25.729Z,101548.03
2022-09-01T17:53:10.122Z,101545.63
2022-09-01T17:56:00.575Z,101539.53
2022-09-01T17:58:39.755Z,101546.09
2022-09-01T18:01:14.039Z,101548.13
2022-09-01T18:04:12.310Z,101542.91
2022-09-01T18:06:39.239Z,101545.81
2022-09-01T18:09:06.341Z,101552.38
2022-09-01T18:11:43.669Z,101550.81
2022-09-01T18:14:42.617Z,101551.00
2022-09-01T18:17:24.505Z,101565.59
2022-09-01T18:20:15.297Z,101550.56
2022-09-01T18:22:49.235Z,101555.38
2022-09-01T18:25:22.192Z,101553.78
2022-09-01T18:27:48.980Z,101560.34
2022-09-01T18:30:26.259Z,101561.41
2022-09-01T18:33:19.048Z,101567.94
2022-09-01T18:35:57.065Z,101572.69
2022-09-01T18:38:33.541Z,101573.72
2022-09-01T18:41:09.309Z,101576.69
2022-09-01T18:43:42.010Z,101581.38
2022-09-01T18:46:23.949Z,101573.50
2022-09-01T18:49:15.628Z,101577.28
2022-09-01T18:52:00.683Z,101576.66
2022-09-01T18:54:34.476Z,101579.53
2022-09-01T18:57:06.747Z,101586.94
2022-09-01T19:00:05.079Z,101583.53
2022-09-01T19:02:46.221Z,101583.75
2022-09-01T19:05:41.398Z,101576.69
2022-09-01T19:08:35.131Z,101571.47
2022-09-01T19:11:08.667Z,101575.34
2022-09-01T19:14:07.885Z,101577.31
2022-09-01T19:16:48.680Z,101575.66
2022-09-01T19:19:37.205Z,101572.25
2022-09-01T19:22:04.023Z,101581.38
2022-09-01T19:24:40.697Z,101576.06
2022-09-01T19:27:14.423Z,101582.47
2022-09-01T19:29:47.267Z,101578.94
2022-09-01T19:32:18.277Z,101579.94
2022-09-01T19:34:50.408Z,101585.47
2022-09-01T19:37:17.361Z,101585.56
2022-09-01T19:39:47.375Z,101591.06
2022-09-01T19:42:32.198Z,101590.31
2022-09-01T19:45:14.184Z,101587.78
2022-09-01T19:47:49.901Z,101597.72
2022-09-01T19:50:19.877Z,101589.75
2022-09-01T19:53:00.454Z,101589.88
2022-09-01T19:55:36.247Z,101591.78
2022-09-01T19:58:13.131Z,101599.09
2022-09-01T20:00:53.412Z,101592.91
2022-09-01T20:03:32.293Z,101599.31
2022-09-01T20:06:08.099Z,101594.03
2022-09-01T20:08:37.830Z,101599.53
2022-09-01T20:11:41.910Z,101592.47
2022-09-01T20:14:25.438Z,101599.88
2022-09-01T20:16:59.855Z,101596.44
2022-09-01T20:19:44.658Z,101599.19
2022-09-01T20:22:22.468Z,101598.47
2022-09-01T20:24:49.754Z,101598.56
2022-09-01T20:27:43.059Z,101604.06
2022-09-01T20:30:13.763Z,101604.16
2022-09-01T20:33:01.570Z,101602.50
2022-09-01T20:35:40.310Z,101594.56
2022-09-01T20:38:45.884Z,101598.31
2022-09-01T20:41:20.214Z,101595.78
2022-09-01T20:43:50.562Z,101602.19
2022-09-01T20:46:21.444Z,101607.66
2022-09-01T20:48:48.217Z,101607.75
2022-09-01T20:51:22.635Z,101611.44
2022-09-01T20:54:28.559Z,101604.38
2022-09-01T20:57:12.405Z,101612.59
2022-09-01T21:00:08.984Z,101612.69
2022-09-01T21:02:54.089Z,101610.16
2022-09-01T21:05:53.051Z,101609.41
2022-09-01T21:08:28.609Z,101612.19
2022-09-01T21:11:25.765Z,101606.03
2022-09-01T21:14:13.921Z,101616.00
2022-09-01T21:16:44.655Z,101611.56
2022-09-01T21:19:41.861Z,101610.75
2022-09-01T21:22:17.434Z,101614.44
2022-09-01T21:24:46.602Z,101611.84
2022-09-01T21:27:17.249Z,101609.19
2022-09-01T21:29:49.793Z,101606.56
2022-09-01T21:32:17.294Z,101605.78
2022-09-01T21:34:45.049Z,101603.09
2022-09-01T21:37:12.189Z,101603.22
2022-09-01T21:39:39.017Z,101606.81
2022-09-01T21:42:08.025Z,101605.97
2022-09-01T21:44:35.201Z,101607.84
2022-09-01T21:47:01.934Z,101604.31
2022-09-01T21:49:28.743Z,101598.16
2022-09-01T21:51:58.887Z,101605.41
2022-09-01T21:54:25.631Z,101610.88
2022-09-01T21:56:53.314Z,101605.59
2022-09-01T21:59:20.418Z,101601.19
2022-09-01T22:01:47.871Z,101609.31
2022-09-01T22:04:15.292Z,101602.25
2022-09-01T22:06:42.048Z,101607.72
2022-09-01T22:09:20.342Z,101605.06
2022-09-01T22:11:50.090Z,101607.88
2022-09-01T22:14:17.575Z,101605.31
2022-09-01T22:16:44.547Z,101611.72
2022-09-01T22:19:11.323Z,101599.31
2022-09-01T22:21:39.780Z,101604.75
2022-09-01T22:24:06.905Z,101597.69
2022-09-01T22:26:35.048Z,101609.38
2022-09-01T22:29:04.324Z,101598.72
2022-09-01T22:31:32.249Z,101605.09
2022-09-01T22:33:59.166Z,101610.53
2022-09-01T22:36:29.144Z,101605.22
2022-09-01T22:38:57.887Z,101605.31
2022-09-01T22:41:26.599Z,101598.16
2022-09-01T22:43:53.344Z,101600.00
2022-09-01T22:46:21.263Z,101595.56
2022-09-01T22:48:49.221Z,101597.41
2022-09-01T22:51:16.546Z,101601.94
2022-09-01T22:53:44.909Z,101603.81
2022-09-01T22:56:13.969Z,101607.50
2022-09-01T22:58:41.214Z,101604.03
2022-09-01T23:01:14.853Z,101598.69
2022-09-01T23:03:42.704Z,101601.47
2022-09-01T23:06:20.241Z,101603.28
2022-09-01T23:08:58.085Z,101606.94
2022-09-01T23:11:25.776Z,101605.22
2022-09-01T23:13:52.984Z,101602.56
2022-09-01T23:16:21.133Z,101599.97
2022-09-01T23:18:48.918Z,101597.34
2022-09-01T23:21:18.596Z,101586.66
2022-09-01T23:23:45.723Z,101595.69
2022-09-01T23:26:13.633Z,101591.31
2022-09-01T23:28:41.895Z,101590.50
2022-09-01T23:31:16.169Z,101591.41
2022-09-01T23:33:42.949Z,101582.53
2022-09-01T23:36:14.537Z,101590.63
2022-09-01T23:38:41.536Z,101579.94
2022-09-01T23:41:11.035Z,101587.16
2022-09-01T23:43:38.250Z,101580.09
2022-09-01T23:46:05.590Z,101577.44
2022-09-01T23:48:32.688Z,101582.84
2022-09-01T23:51:08.620Z,101576.63
2022-09-01T23:53:37.368Z,101581.22
2022-09-01T23:56:09.410Z,101569.63
2022-09-01T23:58:36.252Z,101566.09
